sensor_id;sensor_type;location;lat;lon;timestamp;P1;durP1;ratioP1;P2;durP2;ratioP2
4595;SDS011;2310;49.978;8.742;2023-07-22T00:00:34;5.70;;;4.57;;
4595;SDS011;2310;49.978;8.742;2023-07-22T00:04:35;5.40;;;4.47;;
4595;SDS011;2310;49.978;8.742;2023-07-22T00:08:37;6.23;;;4.60;;
4595;SDS011;2310;49.978;8.742;2023-07-22T00:12:39;7.10;;;4.90;;
4595;SDS011;2310;49.978;8.742;2023-07-22T00:16:40;7.60;;;5.60;;
4595;SDS011;2310;49.978;8.742;2023-07-22T00:20:42;7.50;;;6.30;;
4595;SDS011;2310;49.978;8.742;2023-07-22T00:24:43;8.60;;;5.00;;
4595;SDS011;2310;49.978;8.742;2023-07-22T00:28:44;6.97;;;5.07;;
4595;SDS011;2310;49.978;8.742;2023-07-22T00:32:46;9.80;;;6.27;;
4595;SDS011;2310;49.978;8.742;2023-07-22T00:36:47;5.77;;;4.90;;
4595;SDS011;2310;49.978;8.742;2023-07-22T00:40:49;8.00;;;4.83;;
4595;SDS011;2310;49.978;8.742;2023-07-22T00:44:50;6.70;;;5.60;;
4595;SDS011;2310;49.978;8.742;2023-07-22T00:48:51;7.60;;;6.20;;
4595;SDS011;2310;49.978;8.742;2023-07-22T00:52:54;6.90;;;5.70;;
4595;SDS011;2310;49.978;8.742;2023-07-22T00:56:56;5.97;;;5.20;;
4595;SDS011;2310;49.978;8.742;2023-07-22T01:00:58;6.00;;;5.40;;
4595;SDS011;2310;49.978;8.742;2023-07-22T01:04:59;5.33;;;4.70;;
4595;SDS011;2310;49.978;8.742;2023-07-22T01:09:01;7.40;;;5.63;;
4595;SDS011;2310;49.978;8.742;2023-07-22T01:13:02;7.43;;;5.57;;
4595;SDS011;2310;49.978;8.742;2023-07-22T01:17:06;8.20;;;5.57;;
4595;SDS011;2310;49.978;8.742;2023-07-22T01:21:09;7.00;;;5.30;;
4595;SDS011;2310;49.978;8.742;2023-07-22T01:25:11;9.93;;;5.80;;
4595;SDS011;2310;49.978;8.742;2023-07-22T01:29:12;6.10;;;5.13;;
4595;SDS011;2310;49.978;8.742;2023-07-22T01:33:14;6.70;;;5.30;;
4595;SDS011;2310;49.978;8.742;2023-07-22T01:37:15;6.10;;;5.07;;
4595;SDS011;2310;49.978;8.742;2023-07-22T01:41:16;7.53;;;5.10;;
4595;SDS011;2310;49.978;8.742;2023-07-22T01:45:18;8.17;;;5.10;;
4595;SDS011;2310;49.978;8.742;2023-07-22T01:49:19;6.00;;;4.60;;
4595;SDS011;2310;49.978;8.742;2023-07-22T01:53:21;7.40;;;5.17;;
4595;SDS011;2310;49.978;8.742;2023-07-22T01:57:22;8.90;;;4.57;;
4595;SDS011;2310;49.978;8.742;2023-07-22T02:01:23;6.00;;;5.17;;
4595;SDS011;2310;49.978;8.742;2023-07-22T02:05:25;7.13;;;5.17;;
4595;SDS011;2310;49.978;8.742;2023-07-22T02:09:28;5.97;;;5.37;;
4595;SDS011;2310;49.978;8.742;2023-07-22T02:13:29;6.50;;;5.40;;
4595;SDS011;2310;49.978;8.742;2023-07-22T02:17:31;7.03;;;5.00;;
4595;SDS011;2310;49.978;8.742;2023-07-22T02:21:33;7.23;;;5.30;;
4595;SDS011;2310;49.978;8.742;2023-07-22T02:25:34;5.63;;;5.03;;
4595;SDS011;2310;49.978;8.742;2023-07-22T02:29:36;5.73;;;5.13;;
4595;SDS011;2310;49.978;8.742;2023-07-22T02:33:38;6.40;;;5.03;;
4595;SDS011;2310;49.978;8.742;2023-07-22T02:37:39;6.10;;;5.17;;
4595;SDS011;2310;49.978;8.742;2023-07-22T02:41:41;5.83;;;4.80;;
4595;SDS011;2310;49.978;8.742;2023-07-22T02:45:42;5.20;;;4.60;;
4595;SDS011;2310;49.978;8.742;2023-07-22T02:49:43;5.70;;;4.50;;
4595;SDS011;2310;49.978;8.742;2023-07-22T02:53:46;5.67;;;4.30;;
4595;SDS011;2310;49.978;8.742;2023-07-22T02:57:47;6.90;;;4.20;;
4595;SDS011;2310;49.978;8.742;2023-07-22T03:01:49;6.27;;;4.60;;
4595;SDS011;2310;49.978;8.742;2023-07-22T03:05:51;6.97;;;5.30;;
4595;SDS011;2310;49.978;8.742;2023-07-22T03:09:53;5.93;;;4.37;;
4595;SDS011;2310;49.978;8.742;2023-07-22T03:13:54;6.00;;;4.53;;
4595;SDS011;2310;49.978;8.742;2023-07-22T03:17:56;6.23;;;5.47;;
4595;SDS011;2310;49.978;8.742;2023-07-22T03:22:00;6.40;;;5.70;;
4595;SDS011;2310;49.978;8.742;2023-07-22T03:26:01;7.60;;;6.90;;
4595;SDS011;2310;49.978;8.742;2023-07-22T03:30:03;7.80;;;7.10;;
4595;SDS011;2310;49.978;8.742;2023-07-22T03:34:07;9.50;;;7.43;;
4595;SDS011;2310;49.978;8.742;2023-07-22T03:38:08;8.50;;;7.70;;
4595;SDS011;2310;49.978;8.742;2023-07-22T03:42:10;11.23;;;9.00;;
4595;SDS011;2310;49.978;8.742;2023-07-22T03:46:11;8.37;;;7.57;;
4595;SDS011;2310;49.978;8.742;2023-07-22T03:50:12;9.93;;;7.50;;
4595;SDS011;2310;49.978;8.742;2023-07-22T03:54:14;10.60;;;9.30;;
4595;SDS011;2310;49.978;8.742;2023-07-22T03:58:16;10.73;;;8.33;;
4595;SDS011;2310;49.978;8.742;2023-07-22T04:02:17;9.07;;;8.00;;
4595;SDS011;2310;49.978;8.742;2023-07-22T04:06:19;7.70;;;7.00;;
4595;SDS011;2310;49.978;8.742;2023-07-22T04:10:20;8.17;;;6.83;;
4595;SDS011;2310;49.978;8.742;2023-07-22T04:14:22;7.60;;;5.27;;
4595;SDS011;2310;49.978;8.742;2023-07-22T04:18:23;6.97;;;4.77;;
4595;SDS011;2310;49.978;8.742;2023-07-22T04:22:24;5.57;;;4.77;;
4595;SDS011;2310;49.978;8.742;2023-07-22T04:26:26;7.50;;;4.67;;
4595;SDS011;2310;49.978;8.742;2023-07-22T04:30:27;7.63;;;5.23;;
4595;SDS011;2310;49.978;8.742;2023-07-22T04:34:32;6.60;;;5.23;;
4595;SDS011;2310;49.978;8.742;2023-07-22T04:38:33;7.90;;;5.60;;
4595;SDS011;2310;49.978;8.742;2023-07-22T04:42:35;9.00;;;6.50;;
4595;SDS011;2310;49.978;8.742;2023-07-22T04:46:36;6.10;;;5.27;;
4595;SDS011;2310;49.978;8.742;2023-07-22T04:50:37;6.67;;;5.97;;
4595;SDS011;2310;49.978;8.742;2023-07-22T04:54:41;5.83;;;4.90;;
4595;SDS011;2310;49.978;8.742;2023-07-22T04:58:43;7.03;;;6.20;;
4595;SDS011;2310;49.978;8.742;2023-07-22T05:02:45;5.60;;;5.00;;
4595;SDS011;2310;49.978;8.742;2023-07-22T05:06:47;6.73;;;5.20;;
4595;SDS011;2310;49.978;8.742;2023-07-22T05:10:49;7.03;;;6.00;;
4595;SDS011;2310;49.978;8.742;2023-07-22T05:14:50;6.10;;;5.50;;
4595;SDS011;2310;49.978;8.742;2023-07-22T05:18:52;8.23;;;6.83;;
4595;SDS011;2310;49.978;8.742;2023-07-22T05:22:53;6.77;;;6.07;;
4595;SDS011;2310;49.978;8.742;2023-07-22T05:26:56;8.17;;;7.13;;
4595;SDS011;2310;49.978;8.742;2023-07-22T05:30:59;8.13;;;7.43;;
4595;SDS011;2310;49.978;8.742;2023-07-22T05:35:01;6.73;;;6.13;;
4595;SDS011;2310;49.978;8.742;2023-07-22T05:39:04;7.17;;;6.30;;
4595;SDS011;2310;49.978;8.742;2023-07-22T05:43:06;6.57;;;5.77;;
4595;SDS011;2310;49.978;8.742;2023-07-22T05:47:07;7.20;;;6.60;;
4595;SDS011;2310;49.978;8.742;2023-07-22T05:51:09;7.80;;;6.80;;
4595;SDS011;2310;49.978;8.742;2023-07-22T05:55:11;7.60;;;6.83;;
4595;SDS011;2310;49.978;8.742;2023-07-22T05:59:12;7.00;;;6.30;;
4595;SDS011;2310;49.978;8.742;2023-07-22T06:03:13;6.50;;;5.70;;
4595;SDS011;2310;49.978;8.742;2023-07-22T06:07:15;6.70;;;5.80;;
4595;SDS011;2310;49.978;8.742;2023-07-22T06:11:16;5.53;;;4.90;;
4595;SDS011;2310;49.978;8.742;2023-07-22T06:15:18;6.23;;;5.00;;
4595;SDS011;2310;49.978;8.742;2023-07-22T06:19:20;5.93;;;5.13;;
4595;SDS011;2310;49.978;8.742;2023-07-22T06:23:21;7.43;;;5.90;;
4595;SDS011;2310;49.978;8.742;2023-07-22T06:27:22;7.70;;;6.13;;
4595;SDS011;2310;49.978;8.742;2023-07-22T06:31:24;6.77;;;6.07;;
4595;SDS011;2310;49.978;8.742;2023-07-22T06:35:25;5.90;;;4.87;;
4595;SDS011;2310;49.978;8.742;2023-07-22T06:39:27;7.10;;;5.80;;
4595;SDS011;2310;49.978;8.742;2023-07-22T06:43:28;7.33;;;6.30;;
4595;SDS011;2310;49.978;8.742;2023-07-22T06:47:29;7.17;;;5.80;;
4595;SDS011;2310;49.978;8.742;2023-07-22T06:51:31;7.33;;;6.40;;
4595;SDS011;2310;49.978;8.742;2023-07-22T06:55:32;6.33;;;5.73;;
4595;SDS011;2310;49.978;8.742;2023-07-22T06:59:33;9.20;;;8.30;;
4595;SDS011;2310;49.978;8.742;2023-07-22T07:03:35;9.47;;;8.53;;
4595;SDS011;2310;49.978;8.742;2023-07-22T07:07:36;9.93;;;8.40;;
4595;SDS011;2310;49.978;8.742;2023-07-22T07:11:37;8.97;;;8.07;;
4595;SDS011;2310;49.978;8.742;2023-07-22T07:15:39;8.90;;;8.00;;
4595;SDS011;2310;49.978;8.742;2023-07-22T07:19:40;9.10;;;7.07;;
4595;SDS011;2310;49.978;8.742;2023-07-22T07:23:42;10.33;;;7.03;;
4595;SDS011;2310;49.978;8.742;2023-07-22T07:27:43;7.43;;;6.73;;
4595;SDS011;2310;49.978;8.742;2023-07-22T07:31:44;5.93;;;5.27;;
4595;SDS011;2310;49.978;8.742;2023-07-22T07:35:46;8.13;;;6.20;;
4595;SDS011;2310;49.978;8.742;2023-07-22T07:39:48;9.40;;;6.33;;
4595;SDS011;2310;49.978;8.742;2023-07-22T07:43:50;8.20;;;6.10;;
4595;SDS011;2310;49.978;8.742;2023-07-22T07:47:51;7.43;;;6.10;;
4595;SDS011;2310;49.978;8.742;2023-07-22T07:51:52;9.60;;;5.83;;
4595;SDS011;2310;49.978;8.742;2023-07-22T07:55:54;7.83;;;5.10;;
4595;SDS011;2310;49.978;8.742;2023-07-22T07:59:55;6.30;;;5.40;;
4595;SDS011;2310;49.978;8.742;2023-07-22T08:03:56;5.93;;;4.33;;
4595;SDS011;2310;49.978;8.742;2023-07-22T08:07:58;6.37;;;5.60;;
4595;SDS011;2310;49.978;8.742;2023-07-22T08:12:00;5.57;;;4.80;;
4595;SDS011;2310;49.978;8.742;2023-07-22T08:16:05;6.07;;;5.20;;
4595;SDS011;2310;49.978;8.742;2023-07-22T08:20:09;8.10;;;5.57;;
4595;SDS011;2310;49.978;8.742;2023-07-22T08:24:12;7.37;;;5.00;;
4595;SDS011;2310;49.978;8.742;2023-07-22T08:28:13;8.20;;;5.30;;
4595;SDS011;2310;49.978;8.742;2023-07-22T08:32:15;5.63;;;4.93;;
4595;SDS011;2310;49.978;8.742;2023-07-22T08:36:16;6.70;;;5.43;;
4595;SDS011;2310;49.978;8.742;2023-07-22T08:40:18;6.90;;;6.20;;
4595;SDS011;2310;49.978;8.742;2023-07-22T08:44:19;7.00;;;5.30;;
4595;SDS011;2310;49.978;8.742;2023-07-22T08:48:25;5.93;;;5.00;;
4595;SDS011;2310;49.978;8.742;2023-07-22T08:52:27;9.23;;;5.00;;
4595;SDS011;2310;49.978;8.742;2023-07-22T08:56:29;6.40;;;5.10;;
4595;SDS011;2310;49.978;8.742;2023-07-22T09:00:32;6.90;;;5.43;;
4595;SDS011;2310;49.978;8.742;2023-07-22T09:04:34;7.73;;;4.97;;
4595;SDS011;2310;49.978;8.742;2023-07-22T09:08:36;8.33;;;5.70;;
4595;SDS011;2310;49.978;8.742;2023-07-22T09:12:37;6.93;;;5.63;;
4595;SDS011;2310;49.978;8.742;2023-07-22T09:16:40;5.80;;;5.20;;
4595;SDS011;2310;49.978;8.742;2023-07-22T09:20:43;6.13;;;4.77;;
4595;SDS011;2310;49.978;8.742;2023-07-22T09:24:44;6.60;;;5.30;;
4595;SDS011;2310;49.978;8.742;2023-07-22T09:32:58;8.10;;;5.50;;
4595;SDS011;2310;49.978;8.742;2023-07-22T09:36:59;6.40;;;5.10;;
4595;SDS011;2310;49.978;8.742;2023-07-22T09:41:05;6.70;;;5.13;;
4595;SDS011;2310;49.978;8.742;2023-07-22T09:45:07;5.40;;;4.47;;
4595;SDS011;2310;49.978;8.742;2023-07-22T09:49:09;5.23;;;4.60;;
4595;SDS011;2310;49.978;8.742;2023-07-22T09:53:14;5.70;;;5.10;;
4595;SDS011;2310;49.978;8.742;2023-07-22T09:57:17;5.97;;;4.60;;
4595;SDS011;2310;49.978;8.742;2023-07-22T10:01:20;5.40;;;4.30;;
4595;SDS011;2310;49.978;8.742;2023-07-22T10:05:26;7.23;;;5.23;;
4595;SDS011;2310;49.978;8.742;2023-07-22T10:09:30;6.90;;;4.47;;
4595;SDS011;2310;49.978;8.742;2023-07-22T10:13:32;5.97;;;4.50;;
4595;SDS011;2310;49.978;8.742;2023-07-22T10:17:33;6.67;;;5.10;;
4595;SDS011;2310;49.978;8.742;2023-07-22T10:21:36;6.10;;;4.77;;
4595;SDS011;2310;49.978;8.742;2023-07-22T10:25:38;5.87;;;4.40;;
4595;SDS011;2310;49.978;8.742;2023-07-22T10:29:40;7.33;;;4.30;;
4595;SDS011;2310;49.978;8.742;2023-07-22T10:33:42;6.60;;;5.17;;
4595;SDS011;2310;49.978;8.742;2023-07-22T10:37:47;7.03;;;5.00;;
4595;SDS011;2310;49.978;8.742;2023-07-22T10:41:49;4.87;;;4.20;;
4595;SDS011;2310;49.978;8.742;2023-07-22T10:45:51;5.53;;;4.13;;
4595;SDS011;2310;49.978;8.742;2023-07-22T10:49:54;6.93;;;4.03;;
4595;SDS011;2310;49.978;8.742;2023-07-22T10:53:59;6.10;;;4.77;;
4595;SDS011;2310;49.978;8.742;2023-07-22T10:58:04;12.83;;;5.30;;
4595;SDS011;2310;49.978;8.742;2023-07-22T11:02:07;8.13;;;4.57;;
4595;SDS011;2310;49.978;8.742;2023-07-22T11:06:08;4.87;;;4.23;;
4595;SDS011;2310;49.978;8.742;2023-07-22T11:10:16;5.27;;;4.60;;
4595;SDS011;2310;49.978;8.742;2023-07-22T11:14:20;5.30;;;4.50;;
4595;SDS011;2310;49.978;8.742;2023-07-22T11:18:22;5.40;;;4.40;;
4595;SDS011;2310;49.978;8.742;2023-07-22T11:22:24;7.03;;;5.30;;
4595;SDS011;2310;49.978;8.742;2023-07-22T11:26:25;8.47;;;5.37;;
4595;SDS011;2310;49.978;8.742;2023-07-22T11:30:27;6.77;;;5.50;;
4595;SDS011;2310;49.978;8.742;2023-07-22T11:34:29;8.03;;;6.40;;
4595;SDS011;2310;49.978;8.742;2023-07-22T11:38:31;6.43;;;5.30;;
4595;SDS011;2310;49.978;8.742;2023-07-22T11:42:34;7.27;;;5.07;;
4595;SDS011;2310;49.978;8.742;2023-07-22T11:46:35;7.63;;;6.17;;
4595;SDS011;2310;49.978;8.742;2023-07-22T11:50:39;6.70;;;4.50;;
4595;SDS011;2310;49.978;8.742;2023-07-22T11:54:41;6.60;;;5.70;;
4595;SDS011;2310;49.978;8.742;2023-07-22T11:58:43;6.37;;;5.00;;
4595;SDS011;2310;49.978;8.742;2023-07-22T12:02:48;8.70;;;4.87;;
4595;SDS011;2310;49.978;8.742;2023-07-22T12:06:50;8.07;;;4.83;;
4595;SDS011;2310;49.978;8.742;2023-07-22T12:11:02;5.97;;;4.80;;
4595;SDS011;2310;49.978;8.742;2023-07-22T12:15:02;5.87;;;4.40;;
4595;SDS011;2310;49.978;8.742;2023-07-22T12:19:05;5.77;;;5.00;;
4595;SDS011;2310;49.978;8.742;2023-07-22T12:23:09;5.93;;;5.10;;
4595;SDS011;2310;49.978;8.742;2023-07-22T12:27:10;5.80;;;4.37;;
4595;SDS011;2310;49.978;8.742;2023-07-22T12:31:11;5.53;;;4.37;;
4595;SDS011;2310;49.978;8.742;2023-07-22T12:35:13;6.40;;;4.40;;
4595;SDS011;2310;49.978;8.742;2023-07-22T12:39:15;5.40;;;4.13;;
4595;SDS011;2310;49.978;8.742;2023-07-22T12:43:16;7.20;;;4.90;;
4595;SDS011;2310;49.978;8.742;2023-07-22T12:47:17;6.70;;;4.50;;
4595;SDS011;2310;49.978;8.742;2023-07-22T12:51:19;6.73;;;4.80;;
4595;SDS011;2310;49.978;8.742;2023-07-22T12:55:21;6.37;;;4.20;;
4595;SDS011;2310;49.978;8.742;2023-07-22T12:59:22;7.57;;;4.70;;
4595;SDS011;2310;49.978;8.742;2023-07-22T13:03:24;7.70;;;3.90;;
4595;SDS011;2310;49.978;8.742;2023-07-22T13:07:25;6.80;;;5.57;;
4595;SDS011;2310;49.978;8.742;2023-07-22T13:11:26;7.17;;;4.77;;
4595;SDS011;2310;49.978;8.742;2023-07-22T13:15:28;5.00;;;3.70;;
4595;SDS011;2310;49.978;8.742;2023-07-22T13:19:30;6.70;;;3.90;;
4595;SDS011;2310;49.978;8.742;2023-07-22T13:23:31;4.87;;;4.23;;
4595;SDS011;2310;49.978;8.742;2023-07-22T13:27:32;4.60;;;3.67;;
4595;SDS011;2310;49.978;8.742;2023-07-22T13:31:34;7.83;;;4.40;;
4595;SDS011;2310;49.978;8.742;2023-07-22T13:35:36;5.67;;;4.30;;
4595;SDS011;2310;49.978;8.742;2023-07-22T13:39:37;5.73;;;3.97;;
4595;SDS011;2310;49.978;8.742;2023-07-22T13:43:39;5.83;;;4.07;;
4595;SDS011;2310;49.978;8.742;2023-07-22T13:47:40;4.73;;;3.93;;
4595;SDS011;2310;49.978;8.742;2023-07-22T13:51:42;6.03;;;4.50;;
4595;SDS011;2310;49.978;8.742;2023-07-22T13:55:43;8.07;;;4.77;;
4595;SDS011;2310;49.978;8.742;2023-07-22T13:59:46;5.80;;;3.80;;
4595;SDS011;2310;49.978;8.742;2023-07-22T14:03:47;5.30;;;3.93;;
4595;SDS011;2310;49.978;8.742;2023-07-22T14:07:49;5.23;;;4.53;;
4595;SDS011;2310;49.978;8.742;2023-07-22T14:11:50;6.30;;;4.70;;
4595;SDS011;2310;49.978;8.742;2023-07-22T14:15:52;5.57;;;4.30;;
4595;SDS011;2310;49.978;8.742;2023-07-22T14:19:53;4.40;;;3.50;;
4595;SDS011;2310;49.978;8.742;2023-07-22T14:23:55;5.93;;;4.47;;
4595;SDS011;2310;49.978;8.742;2023-07-22T14:27:56;6.63;;;4.80;;
4595;SDS011;2310;49.978;8.742;2023-07-22T14:31:58;5.73;;;3.93;;
4595;SDS011;2310;49.978;8.742;2023-07-22T14:35:59;6.00;;;4.80;;
4595;SDS011;2310;49.978;8.742;2023-07-22T14:40:00;7.37;;;4.23;;
4595;SDS011;2310;49.978;8.742;2023-07-22T14:44:02;5.27;;;4.00;;
4595;SDS011;2310;49.978;8.742;2023-07-22T14:48:03;6.43;;;4.90;;
4595;SDS011;2310;49.978;8.742;2023-07-22T14:52:06;5.70;;;4.93;;
4595;SDS011;2310;49.978;8.742;2023-07-22T14:56:07;7.43;;;5.00;;
4595;SDS011;2310;49.978;8.742;2023-07-22T15:00:09;8.67;;;4.57;;
4595;SDS011;2310;49.978;8.742;2023-07-22T15:04:11;6.07;;;4.20;;
4595;SDS011;2310;49.978;8.742;2023-07-22T15:08:12;4.80;;;4.10;;
4595;SDS011;2310;49.978;8.742;2023-07-22T15:12:14;10.00;;;4.30;;
4595;SDS011;2310;49.978;8.742;2023-07-22T15:16:17;7.83;;;4.37;;
4595;SDS011;2310;49.978;8.742;2023-07-22T15:20:18;6.60;;;4.63;;
4595;SDS011;2310;49.978;8.742;2023-07-22T15:24:20;7.80;;;4.20;;
4595;SDS011;2310;49.978;8.742;2023-07-22T15:28:21;7.10;;;4.47;;
4595;SDS011;2310;49.978;8.742;2023-07-22T15:32:23;7.23;;;3.67;;
4595;SDS011;2310;49.978;8.742;2023-07-22T15:36:24;5.67;;;4.63;;
4595;SDS011;2310;49.978;8.742;2023-07-22T15:40:25;5.77;;;4.23;;
4595;SDS011;2310;49.978;8.742;2023-07-22T15:44:27;6.97;;;5.40;;
4595;SDS011;2310;49.978;8.742;2023-07-22T15:48:28;6.80;;;5.13;;
4595;SDS011;2310;49.978;8.742;2023-07-22T15:52:29;5.93;;;4.67;;
4595;SDS011;2310;49.978;8.742;2023-07-22T15:56:31;6.03;;;4.90;;
4595;SDS011;2310;49.978;8.742;2023-07-22T16:00:32;5.60;;;4.50;;
4595;SDS011;2310;49.978;8.742;2023-07-22T16:04:34;6.97;;;4.50;;
4595;SDS011;2310;49.978;8.742;2023-07-22T16:08:37;12.47;;;11.20;;
4595;SDS011;2310;49.978;8.742;2023-07-22T16:12:39;8.13;;;6.67;;
4595;SDS011;2310;49.978;8.742;2023-07-22T16:16:40;9.80;;;6.60;;
4595;SDS011;2310;49.978;8.742;2023-07-22T16:20:42;5.00;;;4.50;;
4595;SDS011;2310;49.978;8.742;2023-07-22T16:24:43;5.90;;;4.03;;
4595;SDS011;2310;49.978;8.742;2023-07-22T16:28:45;6.87;;;4.90;;
4595;SDS011;2310;49.978;8.742;2023-07-22T16:32:46;8.73;;;4.90;;
4595;SDS011;2310;49.978;8.742;2023-07-22T16:36:48;6.30;;;4.53;;
4595;SDS011;2310;49.978;8.742;2023-07-22T16:40:50;8.10;;;5.30;;
4595;SDS011;2310;49.978;8.742;2023-07-22T16:44:51;6.87;;;4.70;;
4595;SDS011;2310;49.978;8.742;2023-07-22T16:48:53;8.03;;;5.70;;
4595;SDS011;2310;49.978;8.742;2023-07-22T16:52:54;7.73;;;6.00;;
4595;SDS011;2310;49.978;8.742;2023-07-22T16:56:55;7.90;;;5.20;;
4595;SDS011;2310;49.978;8.742;2023-07-22T17:00:57;7.27;;;5.30;;
4595;SDS011;2310;49.978;8.742;2023-07-22T17:04:58;8.03;;;5.60;;
4595;SDS011;2310;49.978;8.742;2023-07-22T17:09:00;9.17;;;6.00;;
4595;SDS011;2310;49.978;8.742;2023-07-22T17:13:01;7.70;;;5.40;;
4595;SDS011;2310;49.978;8.742;2023-07-22T17:17:04;6.43;;;4.60;;
4595;SDS011;2310;49.978;8.742;2023-07-22T17:21:06;6.60;;;5.03;;
4595;SDS011;2310;49.978;8.742;2023-07-22T17:25:08;6.23;;;4.90;;
4595;SDS011;2310;49.978;8.742;2023-07-22T17:29:09;10.03;;;5.03;;
4595;SDS011;2310;49.978;8.742;2023-07-22T17:33:11;6.70;;;4.70;;
4595;SDS011;2310;49.978;8.742;2023-07-22T17:37:12;7.97;;;5.60;;
4595;SDS011;2310;49.978;8.742;2023-07-22T17:41:15;10.83;;;5.63;;
4595;SDS011;2310;49.978;8.742;2023-07-22T17:45:17;6.77;;;5.30;;
4595;SDS011;2310;49.978;8.742;2023-07-22T17:49:18;7.07;;;5.93;;
4595;SDS011;2310;49.978;8.742;2023-07-22T17:53:19;6.10;;;4.67;;
4595;SDS011;2310;49.978;8.742;2023-07-22T17:57:21;5.67;;;5.00;;
4595;SDS011;2310;49.978;8.742;2023-07-22T18:01:22;9.60;;;5.57;;
4595;SDS011;2310;49.978;8.742;2023-07-22T18:05:24;6.60;;;4.63;;
4595;SDS011;2310;49.978;8.742;2023-07-22T18:09:26;7.30;;;5.30;;
4595;SDS011;2310;49.978;8.742;2023-07-22T18:13:27;8.10;;;4.90;;
4595;SDS011;2310;49.978;8.742;2023-07-22T18:17:29;7.30;;;4.37;;
4595;SDS011;2310;49.978;8.742;2023-07-22T18:21:30;6.20;;;4.97;;
4595;SDS011;2310;49.978;8.742;2023-07-22T18:25:31;8.60;;;4.83;;
4595;SDS011;2310;49.978;8.742;2023-07-22T18:29:34;8.10;;;5.40;;
4595;SDS011;2310;49.978;8.742;2023-07-22T18:33:36;5.80;;;4.63;;
4595;SDS011;2310;49.978;8.742;2023-07-22T18:37:38;6.43;;;4.50;;
4595;SDS011;2310;49.978;8.742;2023-07-22T18:41:39;5.63;;;4.20;;
4595;SDS011;2310;49.978;8.742;2023-07-22T18:45:40;7.33;;;5.90;;
4595;SDS011;2310;49.978;8.742;2023-07-22T18:49:44;6.40;;;5.00;;
4595;SDS011;2310;49.978;8.742;2023-07-22T18:53:47;5.63;;;4.13;;
4595;SDS011;2310;49.978;8.742;2023-07-22T18:57:48;8.40;;;4.97;;
4595;SDS011;2310;49.978;8.742;2023-07-22T19:01:50;5.70;;;4.10;;
4595;SDS011;2310;49.978;8.742;2023-07-22T19:05:51;6.50;;;4.60;;
4595;SDS011;2310;49.978;8.742;2023-07-22T19:09:54;6.30;;;4.67;;
4595;SDS011;2310;49.978;8.742;2023-07-22T19:13:55;6.70;;;4.77;;
4595;SDS011;2310;49.978;8.742;2023-07-22T19:17:57;5.43;;;3.93;;
4595;SDS011;2310;49.978;8.742;2023-07-22T19:21:58;5.87;;;4.40;;
4595;SDS011;2310;49.978;8.742;2023-07-22T19:26:00;6.17;;;4.37;;
4595;SDS011;2310;49.978;8.742;2023-07-22T19:30:03;7.43;;;4.50;;
4595;SDS011;2310;49.978;8.742;2023-07-22T19:34:05;6.60;;;4.53;;
4595;SDS011;2310;49.978;8.742;2023-07-22T19:38:07;6.07;;;4.03;;
4595;SDS011;2310;49.978;8.742;2023-07-22T19:42:08;6.30;;;4.37;;
4595;SDS011;2310;49.978;8.742;2023-07-22T19:46:11;5.53;;;4.37;;
4595;SDS011;2310;49.978;8.742;2023-07-22T19:50:14;6.47;;;4.20;;
4595;SDS011;2310;49.978;8.742;2023-07-22T19:54:15;6.50;;;4.53;;
4595;SDS011;2310;49.978;8.742;2023-07-22T19:58:16;6.10;;;4.60;;
4595;SDS011;2310;49.978;8.742;2023-07-22T20:02:23;9.57;;;5.03;;
4595;SDS011;2310;49.978;8.742;2023-07-22T20:06:24;10.03;;;4.10;;
4595;SDS011;2310;49.978;8.742;2023-07-22T20:10:27;7.90;;;5.07;;
4595;SDS011;2310;49.978;8.742;2023-07-22T20:14:28;5.60;;;4.23;;
4595;SDS011;2310;49.978;8.742;2023-07-22T20:18:30;9.43;;;5.00;;
4595;SDS011;2310;49.978;8.742;2023-07-22T20:22:32;7.90;;;5.60;;
4595;SDS011;2310;49.978;8.742;2023-07-22T20:26:33;6.07;;;5.03;;
4595;SDS011;2310;49.978;8.742;2023-07-22T20:30:35;5.57;;;4.40;;
4595;SDS011;2310;49.978;8.742;2023-07-22T20:34:36;6.60;;;4.13;;
4595;SDS011;2310;49.978;8.742;2023-07-22T20:38:38;5.47;;;4.60;;
4595;SDS011;2310;49.978;8.742;2023-07-22T20:42:40;5.40;;;3.80;;
4595;SDS011;2310;49.978;8.742;2023-07-22T20:46:43;11.73;;;5.00;;
4595;SDS011;2310;49.978;8.742;2023-07-22T20:50:44;6.23;;;4.17;;
4595;SDS011;2310;49.978;8.742;2023-07-22T20:54:46;6.03;;;4.73;;
4595;SDS011;2310;49.978;8.742;2023-07-22T20:58:48;8.50;;;4.33;;
4595;SDS011;2310;49.978;8.742;2023-07-22T21:02:50;6.67;;;5.20;;
4595;SDS011;2310;49.978;8.742;2023-07-22T21:06:51;5.53;;;4.20;;
4595;SDS011;2310;49.978;8.742;2023-07-22T21:10:52;8.13;;;5.13;;
4595;SDS011;2310;49.978;8.742;2023-07-22T21:14:54;6.07;;;4.60;;
4595;SDS011;2310;49.978;8.742;2023-07-22T21:18:55;6.73;;;5.30;;
4595;SDS011;2310;49.978;8.742;2023-07-22T21:22:57;5.73;;;4.40;;
4595;SDS011;2310;49.978;8.742;2023-07-22T21:26:59;8.00;;;4.97;;
4595;SDS011;2310;49.978;8.742;2023-07-22T21:31:00;7.20;;;4.50;;
4595;SDS011;2310;49.978;8.742;2023-07-22T21:35:02;5.70;;;4.60;;
4595;SDS011;2310;49.978;8.742;2023-07-22T21:39:04;6.80;;;4.90;;
4595;SDS011;2310;49.978;8.742;2023-07-22T21:43:05;7.43;;;4.63;;
4595;SDS011;2310;49.978;8.742;2023-07-22T21:47:06;7.30;;;5.80;;
4595;SDS011;2310;49.978;8.742;2023-07-22T21:51:08;6.07;;;5.00;;
4595;SDS011;2310;49.978;8.742;2023-07-22T21:55:09;6.60;;;4.60;;
4595;SDS011;2310;49.978;8.742;2023-07-22T21:59:10;4.87;;;3.90;;
4595;SDS011;2310;49.978;8.742;2023-07-22T22:03:12;7.67;;;5.10;;
4595;SDS011;2310;49.978;8.742;2023-07-22T22:07:13;6.87;;;4.60;;
4595;SDS011;2310;49.978;8.742;2023-07-22T22:11:14;5.90;;;4.70;;
4595;SDS011;2310;49.978;8.742;2023-07-22T22:15:16;5.13;;;4.40;;
4595;SDS011;2310;49.978;8.742;2023-07-22T22:19:18;8.50;;;4.83;;
4595;SDS011;2310;49.978;8.742;2023-07-22T22:23:20;9.53;;;5.23;;
4595;SDS011;2310;49.978;8.742;2023-07-22T22:27:21;8.73;;;5.10;;
4595;SDS011;2310;49.978;8.742;2023-07-22T22:31:22;11.40;;;5.20;;
4595;SDS011;2310;49.978;8.742;2023-07-22T22:35:24;10.03;;;5.40;;
4595;SDS011;2310;49.978;8.742;2023-07-22T22:39:25;7.37;;;5.27;;
4595;SDS011;2310;49.978;8.742;2023-07-22T22:43:26;7.53;;;4.70;;
4595;SDS011;2310;49.978;8.742;2023-07-22T22:47:28;6.70;;;5.20;;
4595;SDS011;2310;49.978;8.742;2023-07-22T22:51:29;6.60;;;4.40;;
4595;SDS011;2310;49.978;8.742;2023-07-22T22:55:31;11.03;;;5.10;;
4595;SDS011;2310;49.978;8.742;2023-07-22T22:59:32;8.37;;;4.60;;
4595;SDS011;2310;49.978;8.742;2023-07-22T23:03:34;5.63;;;4.40;;
4595;SDS011;2310;49.978;8.742;2023-07-22T23:07:35;7.47;;;5.67;;
4595;SDS011;2310;49.978;8.742;2023-07-22T23:11:37;7.80;;;5.00;;
4595;SDS011;2310;49.978;8.742;2023-07-22T23:15:38;6.43;;;5.07;;
4595;SDS011;2310;49.978;8.742;2023-07-22T23:19:40;7.23;;;5.27;;
4595;SDS011;2310;49.978;8.742;2023-07-22T23:23:41;7.50;;;5.47;;
4595;SDS011;2310;49.978;8.742;2023-07-22T23:27:44;7.37;;;4.60;;
4595;SDS011;2310;49.978;8.742;2023-07-22T23:31:45;6.80;;;5.40;;
4595;SDS011;2310;49.978;8.742;2023-07-22T23:35:50;8.43;;;5.40;;
4595;SDS011;2310;49.978;8.742;2023-07-22T23:39:52;6.90;;;4.87;;
4595;SDS011;2310;49.978;8.742;2023-07-22T23:43:54;7.80;;;5.40;;
4595;SDS011;2310;49.978;8.742;2023-07-22T23:47:55;6.37;;;4.93;;
4595;SDS011;2310;49.978;8.742;2023-07-22T23:51:57;6.97;;;4.97;;
4595;SDS011;2310;49.978;8.742;2023-07-22T23:55:58;9.03;;;5.07;;
